createdAt,value
2022-10-22T00:01:23.069Z,75.59
2022-10-22T00:06:33.974Z,75.51
2022-10-22T00:11:26.348Z,75.60
2022-10-22T00:16:26.315Z,75.68
2022-10-22T00:21:26.225Z,75.70
2022-10-22T00:26:26.180Z,75.68
2022-10-22T00:31:26.081Z,75.67
2022-10-22T00:36:26.016Z,75.67
2022-10-22T00:41:25.980Z,75.70
2022-10-22T00:46:25.887Z,75.69
2022-10-22T00:51:25.827Z,75.64
2022-10-22T00:56:25.727Z,75.67
2022-10-22T01:01:25.713Z,75.68
2022-10-22T01:06:25.620Z,75.68
2022-10-22T01:11:25.589Z,75.72
2022-10-22T01:16:25.481Z,75.75
2022-10-22T01:21:25.430Z,75.74
2022-10-22T01:26:25.365Z,75.78
2022-10-22T01:31:25.256Z,75.80
2022-10-22T01:36:25.204Z,75.80
2022-10-22T01:41:25.147Z,75.89
2022-10-22T01:46:25.080Z,75.97
2022-10-22T01:51:25.024Z,76.06
2022-10-22T01:56:24.951Z,76.10
2022-10-22T02:01:24.873Z,76.13
2022-10-22T02:06:24.813Z,76.18
2022-10-22T02:11:24.712Z,76.21
2022-10-22T02:16:24.671Z,76.25
2022-10-22T02:21:24.600Z,76.28
2022-10-22T02:26:24.542Z,76.29
2022-10-22T02:31:24.449Z,76.30
2022-10-22T02:36:24.409Z,76.28
2022-10-22T02:41:24.332Z,76.27
2022-10-22T02:46:24.268Z,76.27
2022-10-22T02:51:24.216Z,76.24
2022-10-22T02:56:24.120Z,76.25
2022-10-22T03:01:24.104Z,76.29
2022-10-22T03:11:24.005Z,76.30
2022-10-22T03:16:23.895Z,76.33
2022-10-22T03:21:23.799Z,76.38
2022-10-22T03:26:23.740Z,76.41
2022-10-22T03:31:23.663Z,76.40
2022-10-22T03:36:23.593Z,76.39
2022-10-22T03:41:23.480Z,76.45
2022-10-22T03:46:23.447Z,76.53
2022-10-22T03:51:23.403Z,76.56
2022-10-22T03:56:23.323Z,76.53
2022-10-22T04:01:23.301Z,76.52
2022-10-22T04:06:23.205Z,76.48
2022-10-22T04:11:23.088Z,76.48
2022-10-22T04:16:30.668Z,76.40
2022-10-22T04:21:23.027Z,76.51
2022-10-22T04:26:22.953Z,76.58
2022-10-22T04:31:22.880Z,76.63
2022-10-22T04:36:22.821Z,76.67
2022-10-22T04:41:22.753Z,76.68
2022-10-22T04:46:22.691Z,76.77
2022-10-22T04:51:30.500Z,76.69
2022-10-22T04:56:22.914Z,76.75
2022-10-22T05:01:22.933Z,76.85
2022-10-22T05:06:22.745Z,76.89
2022-10-22T05:11:22.712Z,76.95
2022-10-22T05:16:22.636Z,77.02
2022-10-22T05:21:22.572Z,77.08
2022-10-22T05:26:22.476Z,77.10
2022-10-22T05:31:22.429Z,77.06
2022-10-22T05:36:22.359Z,77.07
2022-10-22T05:41:22.348Z,77.05
2022-10-22T05:46:23.143Z,77.05
2022-10-22T05:51:22.153Z,77.03
2022-10-22T05:56:22.096Z,77.03
2022-10-22T06:01:22.018Z,77.05
2022-10-22T06:06:21.949Z,77.02
2022-10-22T06:11:21.896Z,77.06
2022-10-22T06:16:21.801Z,77.06
2022-10-22T06:21:21.756Z,77.03
2022-10-22T06:26:21.668Z,76.97
2022-10-22T06:31:21.705Z,77.03
2022-10-22T06:36:21.531Z,76.87
2022-10-22T06:41:24.315Z,76.66
2022-10-22T06:46:22.492Z,76.05
2022-10-22T06:51:21.311Z,75.52
2022-10-22T06:56:21.509Z,74.93
2022-10-22T07:01:21.335Z,74.69
2022-10-22T07:06:21.127Z,74.76
2022-10-22T07:11:21.078Z,74.27
2022-10-22T07:16:21.021Z,74.03
2022-10-22T07:21:20.909Z,73.59
2022-10-22T07:26:20.867Z,72.52
2022-10-22T07:31:20.793Z,73.21
2022-10-22T07:36:20.714Z,72.99
2022-10-22T07:41:20.665Z,73.16
2022-10-22T07:46:20.573Z,70.16
2022-10-22T07:51:20.535Z,65.88
2022-10-22T07:56:20.446Z,65.96
2022-10-22T08:01:20.447Z,68.55
2022-10-22T08:06:20.318Z,69.30
2022-10-22T08:11:20.246Z,63.48
2022-10-22T08:16:20.528Z,61.00
2022-10-22T08:21:20.125Z,61.86
2022-10-22T08:26:20.096Z,64.79
2022-10-22T08:31:19.980Z,66.39
2022-10-22T08:36:19.918Z,66.33
2022-10-22T08:41:19.876Z,65.70
2022-10-22T08:46:19.791Z,64.19
2022-10-22T08:51:19.739Z,64.56
2022-10-22T08:56:19.902Z,65.82
2022-10-22T09:01:19.566Z,65.87
2022-10-22T09:06:19.491Z,64.63
2022-10-22T09:11:19.444Z,65.31
2022-10-22T09:16:19.386Z,66.58
2022-10-22T09:21:19.303Z,66.60
2022-10-22T09:26:19.382Z,65.20
2022-10-22T09:31:19.214Z,62.95
2022-10-22T09:36:19.186Z,63.78
2022-10-22T09:41:19.310Z,63.55
2022-10-22T09:46:18.993Z,64.53
2022-10-22T09:51:18.961Z,65.33
2022-10-22T09:56:19.016Z,64.44
2022-10-22T10:01:18.822Z,64.45
2022-10-22T10:06:18.772Z,64.37
2022-10-22T10:11:18.660Z,64.62
2022-10-22T10:16:18.787Z,64.84
2022-10-22T10:21:18.542Z,65.41
2022-10-22T10:26:18.439Z,65.44
2022-10-22T10:31:18.359Z,65.99
2022-10-22T10:36:18.309Z,65.87
2022-10-22T10:41:18.274Z,65.78
2022-10-22T10:51:18.114Z,65.71
2022-10-22T10:56:18.044Z,66.57
2022-10-22T11:01:17.974Z,66.49
2022-10-22T11:06:19.443Z,66.46
2022-10-22T11:11:17.854Z,66.41
2022-10-22T11:16:17.842Z,66.24
2022-10-22T11:21:17.713Z,66.05
2022-10-22T11:26:17.594Z,65.73
2022-10-22T11:31:17.664Z,64.82
2022-10-22T11:36:17.504Z,63.78
2022-10-22T11:41:17.396Z,50.49
2022-10-22T11:46:17.366Z,55.72
2022-10-22T11:51:17.332Z,55.94
2022-10-22T11:56:17.200Z,58.74
2022-10-22T12:01:17.220Z,60.57
2022-10-22T12:06:17.083Z,61.89
2022-10-22T12:11:17.024Z,62.62
2022-10-22T12:16:23.633Z,63.20
2022-10-22T12:21:17.875Z,63.27
2022-10-22T12:26:16.891Z,62.78
2022-10-22T12:31:16.765Z,62.22
2022-10-22T12:36:16.669Z,62.56
2022-10-22T12:41:16.632Z,61.88
2022-10-22T12:46:16.538Z,59.75
2022-10-22T12:51:16.517Z,59.39
2022-10-22T12:56:16.434Z,59.94
2022-10-22T13:01:16.395Z,60.74
2022-10-22T13:06:16.299Z,61.57
2022-10-22T13:11:16.193Z,61.74
2022-10-22T13:16:16.161Z,61.89
2022-10-22T13:21:16.085Z,62.28
2022-10-22T13:26:15.993Z,62.18
2022-10-22T13:31:15.943Z,62.10
2022-10-22T13:36:15.872Z,61.72
2022-10-22T13:41:15.770Z,61.80
2022-10-22T13:46:15.791Z,62.06
2022-10-22T13:51:15.693Z,62.12
2022-10-22T13:56:15.734Z,62.03
2022-10-22T14:01:15.578Z,61.84
2022-10-22T14:06:15.448Z,61.73
2022-10-22T14:11:15.412Z,61.74
2022-10-22T14:16:15.313Z,61.41
2022-10-22T14:21:15.234Z,61.56
2022-10-22T14:26:15.168Z,62.04
2022-10-22T14:31:15.140Z,62.46
2022-10-22T14:36:15.040Z,62.11
2022-10-22T14:41:14.983Z,61.77
2022-10-22T14:46:15.219Z,61.67
2022-10-22T14:51:14.819Z,61.53
2022-10-22T14:56:14.789Z,61.41
2022-10-22T15:01:14.794Z,60.99
2022-10-22T15:06:14.890Z,61.06
2022-10-22T15:11:14.561Z,61.17
2022-10-22T15:16:14.513Z,61.77
2022-10-22T15:21:14.423Z,62.02
2022-10-22T15:26:14.421Z,62.32
2022-10-22T15:31:14.318Z,62.59
2022-10-22T15:36:14.232Z,62.84
2022-10-22T15:41:14.189Z,63.17
2022-10-22T15:46:14.099Z,63.56
2022-10-22T15:51:14.082Z,63.90
2022-10-22T15:56:13.974Z,64.21
2022-10-22T16:01:14.098Z,64.57
2022-10-22T16:06:13.881Z,64.92
2022-10-22T16:11:13.755Z,65.26
2022-10-22T16:16:13.692Z,65.55
2022-10-22T16:21:13.640Z,65.86
2022-10-22T16:26:13.590Z,66.12
2022-10-22T16:31:13.527Z,66.34
2022-10-22T16:36:13.412Z,66.56
2022-10-22T16:41:13.387Z,66.73
2022-10-22T16:46:13.461Z,66.89
2022-10-22T16:51:13.236Z,67.05
2022-10-22T16:56:13.152Z,67.20
2022-10-22T17:01:16.952Z,67.34
2022-10-22T17:06:13.021Z,67.50
2022-10-22T17:11:12.909Z,67.64
2022-10-22T17:16:12.879Z,67.75
2022-10-22T17:21:12.808Z,67.86
2022-10-22T17:26:12.751Z,67.95
2022-10-22T17:31:12.686Z,68.04
2022-10-22T17:36:12.606Z,68.13
2022-10-22T17:41:14.649Z,68.24
2022-10-22T17:46:12.542Z,68.35
2022-10-22T17:51:12.443Z,68.42
2022-10-22T17:56:12.380Z,68.52
2022-10-22T18:01:12.366Z,68.60
2022-10-22T18:06:12.208Z,68.71
2022-10-22T18:11:13.329Z,68.80
2022-10-22T18:16:12.083Z,68.89
2022-10-22T18:21:12.017Z,68.97
2022-10-22T18:26:11.935Z,69.06
2022-10-22T18:31:11.896Z,69.14
2022-10-22T18:36:11.801Z,69.20
2022-10-22T18:41:11.734Z,69.27
2022-10-22T18:46:11.737Z,69.34
2022-10-22T18:51:11.685Z,69.42
2022-10-22T18:56:11.580Z,69.49
2022-10-22T19:01:11.506Z,69.55
2022-10-22T19:06:11.392Z,69.60
2022-10-22T19:11:11.385Z,69.68
2022-10-22T19:16:11.286Z,69.72
2022-10-22T19:21:11.327Z,69.76
2022-10-22T19:26:11.152Z,69.82
2022-10-22T19:31:11.123Z,69.83
2022-10-22T19:36:11.001Z,69.90
2022-10-22T19:41:10.926Z,69.93
2022-10-22T19:46:10.879Z,69.99
2022-10-22T19:51:10.801Z,70.05
2022-10-22T19:56:10.725Z,70.10
2022-10-22T20:01:10.763Z,70.18
2022-10-22T20:06:10.591Z,70.25
2022-10-22T20:11:10.546Z,70.28
2022-10-22T20:16:10.523Z,70.31
2022-10-22T20:21:10.386Z,70.35
2022-10-22T20:26:10.326Z,70.40
2022-10-22T20:31:10.250Z,70.43
2022-10-22T20:36:10.197Z,70.47
2022-10-22T20:41:10.236Z,70.49
2022-10-22T20:46:10.064Z,70.54
2022-10-22T20:51:09.958Z,70.59
2022-10-22T20:56:09.920Z,70.62
2022-10-22T21:01:09.903Z,70.68
2022-10-22T21:06:09.764Z,70.72
2022-10-22T21:11:09.738Z,70.77
2022-10-22T21:16:09.861Z,70.82
2022-10-22T21:21:09.569Z,70.86
2022-10-22T21:26:09.510Z,70.92
2022-10-22T21:31:09.446Z,70.99
2022-10-22T21:36:09.380Z,71.07
2022-10-22T21:41:09.284Z,71.16
2022-10-22T21:46:09.222Z,71.22
2022-10-22T21:51:09.161Z,71.28
2022-10-22T21:56:09.138Z,71.35
2022-10-22T22:01:09.097Z,71.41
2022-10-22T22:06:08.969Z,71.48
2022-10-22T22:11:08.876Z,71.54
2022-10-22T22:16:08.845Z,71.60
2022-10-22T22:21:08.768Z,71.67
2022-10-22T22:26:08.674Z,71.72
2022-10-22T22:31:08.617Z,71.78
2022-10-22T22:36:08.544Z,71.82
2022-10-22T22:41:08.465Z,71.87
2022-10-22T22:46:08.423Z,71.91
2022-10-22T22:51:08.349Z,71.94
2022-10-22T22:56:08.305Z,72.01
2022-10-22T23:01:08.252Z,72.03
2022-10-22T23:06:08.277Z,72.09
2022-10-22T23:11:08.064Z,72.11
2022-10-22T23:16:08.005Z,72.18
2022-10-22T23:21:07.988Z,72.22
2022-10-22T23:26:07.969Z,72.28
2022-10-22T23:31:07.816Z,72.34
2022-10-22T23:36:07.766Z,72.40
2022-10-22T23:41:07.786Z,72.44
2022-10-22T23:46:07.614Z,72.48
2022-10-22T23:51:07.529Z,72.53
2022-10-22T23:56:07.473Z,72.56
